sensor_id;sensor_type;location;lat;lon;timestamp;P1;durP1;ratioP1;P2;durP2;ratioP2
1753;SDS011;58380;48.312;9.246;2023-03-31T06:44:48;14.95;;;5.20;;
1753;SDS011;58380;48.312;9.246;2023-03-31T06:47:13;14.57;;;4.80;;
1753;SDS011;58380;48.312;9.246;2023-03-31T06:49:39;11.67;;;4.20;;
1753;SDS011;58380;48.312;9.246;2023-03-31T06:52:04;12.20;;;4.50;;
1753;SDS011;58380;48.312;9.246;2023-03-31T06:54:30;11.50;;;4.63;;
1753;SDS011;58380;48.312;9.246;2023-03-31T06:56:55;9.03;;;4.77;;
1753;SDS011;58380;48.312;9.246;2023-03-31T06:59:21;9.83;;;4.80;;
1753;SDS011;58380;48.312;9.246;2023-03-31T07:01:46;9.13;;;4.90;;
1753;SDS011;58380;48.312;9.246;2023-03-31T07:04:12;11.38;;;4.72;;
1753;SDS011;58380;48.312;9.246;2023-03-31T07:06:38;10.38;;;5.18;;
1753;SDS011;58380;48.312;9.246;2023-03-31T07:09:03;14.47;;;4.30;;
1753;SDS011;58380;48.312;9.246;2023-03-31T07:11:29;3.90;;;1.60;;
1753;SDS011;58380;48.312;9.246;2023-03-31T07:13:54;1.05;;;0.68;;
1753;SDS011;58380;48.312;9.246;2023-03-31T07:16:19;1.53;;;0.60;;
1753;SDS011;58380;48.312;9.246;2023-03-31T07:18:45;2.00;;;0.70;;
1753;SDS011;58380;48.312;9.246;2023-03-31T07:21:10;0.97;;;0.43;;
1753;SDS011;58380;48.312;9.246;2023-03-31T07:23:36;1.63;;;0.47;;
1753;SDS011;58380;48.312;9.246;2023-03-31T07:26:02;2.10;;;0.55;;
1753;SDS011;58380;48.312;9.246;2023-03-31T07:28:28;1.85;;;0.63;;
1753;SDS011;58380;48.312;9.246;2023-03-31T07:30:54;2.20;;;0.60;;
1753;SDS011;58380;48.312;9.246;2023-03-31T07:33:19;1.60;;;0.70;;
1753;SDS011;58380;48.312;9.246;2023-03-31T07:35:45;1.40;;;0.67;;
1753;SDS011;58380;48.312;9.246;2023-03-31T07:38:10;1.40;;;0.40;;
1753;SDS011;58380;48.312;9.246;2023-03-31T07:40:37;1.30;;;0.43;;
1753;SDS011;58380;48.312;9.246;2023-03-31T07:43:04;1.02;;;0.55;;
1753;SDS011;58380;48.312;9.246;2023-03-31T07:45:30;2.22;;;0.80;;
1753;SDS011;58380;48.312;9.246;2023-03-31T07:50:22;2.92;;;0.60;;
1753;SDS011;58380;48.312;9.246;2023-03-31T07:52:49;1.30;;;0.40;;
1753;SDS011;58380;48.312;9.246;2023-03-31T07:55:15;1.65;;;0.50;;
1753;SDS011;58380;48.312;9.246;2023-03-31T07:57:41;1.92;;;0.57;;
1753;SDS011;58380;48.312;9.246;2023-03-31T08:00:10;0.75;;;0.40;;
1753;SDS011;58380;48.312;9.246;2023-03-31T08:02:36;1.65;;;0.50;;
1753;SDS011;58380;48.312;9.246;2023-03-31T08:05:03;6.20;;;0.55;;
1753;SDS011;58380;48.312;9.246;2023-03-31T08:07:32;3.38;;;1.00;;
1753;SDS011;58380;48.312;9.246;2023-03-31T08:10:01;1.20;;;0.70;;
1753;SDS011;58380;48.312;9.246;2023-03-31T08:12:29;3.60;;;0.70;;
1753;SDS011;58380;48.312;9.246;2023-03-31T08:14:55;2.20;;;1.00;;
1753;SDS011;58380;48.312;9.246;2023-03-31T08:17:20;3.83;;;1.53;;
1753;SDS011;58380;48.312;9.246;2023-03-31T08:19:45;1.57;;;0.40;;
1753;SDS011;58380;48.312;9.246;2023-03-31T08:22:11;1.40;;;0.70;;
1753;SDS011;58380;48.312;9.246;2023-03-31T08:24:36;3.10;;;0.50;;
1753;SDS011;58380;48.312;9.246;2023-03-31T08:27:02;2.13;;;0.40;;
1753;SDS011;58380;48.312;9.246;2023-03-31T08:29:27;1.60;;;0.47;;
1753;SDS011;58380;48.312;9.246;2023-03-31T08:31:53;1.47;;;0.70;;
1753;SDS011;58380;48.312;9.246;2023-03-31T08:34:19;0.93;;;0.38;;
1753;SDS011;58380;48.312;9.246;2023-03-31T08:36:44;4.05;;;0.52;;
1753;SDS011;58380;48.312;9.246;2023-03-31T08:44:39;0.55;;;0.30;;
1753;SDS011;58380;48.312;9.246;2023-03-31T08:47:16;4.43;;;0.90;;
1753;SDS011;58380;48.312;9.246;2023-03-31T08:49:58;2.97;;;0.50;;
1753;SDS011;58380;48.312;9.246;2023-03-31T08:52:36;0.57;;;0.30;;
1753;SDS011;58380;48.312;9.246;2023-03-31T08:55:11;2.03;;;0.70;;
1753;SDS011;58380;48.312;9.246;2023-03-31T08:57:51;2.20;;;0.60;;
1753;SDS011;58380;48.312;9.246;2023-03-31T09:00:22;0.90;;;0.50;;
1753;SDS011;58380;48.312;9.246;2023-03-31T09:02:50;1.00;;;0.45;;
1753;SDS011;58380;48.312;9.246;2023-03-31T09:16:51;3.10;;;0.68;;
1753;SDS011;58380;48.312;9.246;2023-03-31T09:19:36;2.63;;;0.80;;
1753;SDS011;58380;48.312;9.246;2023-03-31T09:22:34;2.88;;;0.50;;
1753;SDS011;58380;48.312;9.246;2023-03-31T09:25:11;4.53;;;0.70;;
1753;SDS011;58380;48.312;9.246;2023-03-31T09:27:44;2.28;;;0.60;;
1753;SDS011;58380;48.312;9.246;2023-03-31T09:30:13;2.67;;;0.85;;
1753;SDS011;58380;48.312;9.246;2023-03-31T09:32:48;2.05;;;0.88;;
1753;SDS011;58380;48.312;9.246;2023-03-31T09:35:37;3.50;;;0.70;;
1753;SDS011;58380;48.312;9.246;2023-03-31T09:38:03;2.53;;;0.47;;
1753;SDS011;58380;48.312;9.246;2023-03-31T09:40:28;1.03;;;0.50;;
1753;SDS011;58380;48.312;9.246;2023-03-31T09:45:54;1.48;;;0.43;;
1753;SDS011;58380;48.312;9.246;2023-03-31T09:48:28;3.70;;;0.82;;
1753;SDS011;58380;48.312;9.246;2023-03-31T09:51:03;3.65;;;0.60;;
1753;SDS011;58380;48.312;9.246;2023-03-31T09:53:37;2.58;;;0.60;;
1753;SDS011;58380;48.312;9.246;2023-03-31T09:56:11;7.78;;;1.02;;
1753;SDS011;58380;48.312;9.246;2023-03-31T09:58:41;3.53;;;1.02;;
1753;SDS011;58380;48.312;9.246;2023-03-31T10:01:10;3.47;;;0.73;;
1753;SDS011;58380;48.312;9.246;2023-03-31T10:03:49;2.92;;;0.43;;
1753;SDS011;58380;48.312;9.246;2023-03-31T10:06:21;2.58;;;0.68;;
1753;SDS011;58380;48.312;9.246;2023-03-31T10:08:58;6.50;;;0.80;;
1753;SDS011;58380;48.312;9.246;2023-03-31T10:11:29;3.08;;;1.00;;
1753;SDS011;58380;48.312;9.246;2023-03-31T10:14:00;5.60;;;0.98;;
1753;SDS011;58380;48.312;9.246;2023-03-31T10:16:44;4.63;;;0.85;;
1753;SDS011;58380;48.312;9.246;2023-03-31T10:22:02;5.35;;;0.65;;
1753;SDS011;58380;48.312;9.246;2023-03-31T10:24:41;3.92;;;0.82;;
1753;SDS011;58380;48.312;9.246;2023-03-31T10:27:20;4.93;;;0.80;;
1753;SDS011;58380;48.312;9.246;2023-03-31T10:30:03;4.88;;;1.13;;
1753;SDS011;58380;48.312;9.246;2023-03-31T10:32:40;4.40;;;1.00;;
1753;SDS011;58380;48.312;9.246;2023-03-31T10:38:02;6.53;;;0.70;;
1753;SDS011;58380;48.312;9.246;2023-03-31T10:40:34;5.45;;;0.80;;
1753;SDS011;58380;48.312;9.246;2023-03-31T10:43:03;3.83;;;0.80;;
1753;SDS011;58380;48.312;9.246;2023-03-31T10:45:42;3.50;;;0.60;;
1753;SDS011;58380;48.312;9.246;2023-03-31T10:48:32;4.28;;;0.98;;
1753;SDS011;58380;48.312;9.246;2023-03-31T10:51:25;2.33;;;0.82;;
1753;SDS011;58380;48.312;9.246;2023-03-31T10:53:52;2.77;;;0.70;;
1753;SDS011;58380;48.312;9.246;2023-03-31T11:02:28;2.42;;;0.50;;
1753;SDS011;58380;48.312;9.246;2023-03-31T11:05:27;3.92;;;0.80;;
1753;SDS011;58380;48.312;9.246;2023-03-31T11:08:00;2.50;;;0.68;;
1753;SDS011;58380;48.312;9.246;2023-03-31T11:11:01;6.53;;;1.10;;
1753;SDS011;58380;48.312;9.246;2023-03-31T11:13:46;2.35;;;0.60;;
1753;SDS011;58380;48.312;9.246;2023-03-31T11:16:39;2.47;;;0.70;;
1753;SDS011;58380;48.312;9.246;2023-03-31T11:19:35;3.10;;;0.70;;
1753;SDS011;58380;48.312;9.246;2023-03-31T11:25:13;3.72;;;1.00;;
1753;SDS011;58380;48.312;9.246;2023-03-31T11:27:54;5.78;;;0.90;;
1753;SDS011;58380;48.312;9.246;2023-03-31T11:30:32;4.22;;;0.80;;
1753;SDS011;58380;48.312;9.246;2023-03-31T11:33:15;1.98;;;0.15;;
1753;SDS011;58380;48.312;9.246;2023-03-31T11:36:22;2.85;;;0.50;;
1753;SDS011;58380;48.312;9.246;2023-03-31T11:39:55;0.98;;;0.10;;
1753;SDS011;58380;48.312;9.246;2023-03-31T11:42:46;1.33;;;0.30;;
1753;SDS011;58380;48.312;9.246;2023-03-31T11:45:27;1.45;;;0.20;;
1753;SDS011;58380;48.312;9.246;2023-03-31T11:48:04;2.03;;;0.37;;
1753;SDS011;58380;48.312;9.246;2023-03-31T11:50:41;4.40;;;0.22;;
1753;SDS011;58380;48.312;9.246;2023-03-31T11:53:14;1.48;;;0.10;;
1753;SDS011;58380;48.312;9.246;2023-03-31T11:55:45;1.25;;;0.17;;
1753;SDS011;58380;48.312;9.246;2023-03-31T11:58:29;3.00;;;0.20;;
1753;SDS011;58380;48.312;9.246;2023-03-31T12:01:06;1.20;;;0.22;;
1753;SDS011;58380;48.312;9.246;2023-03-31T12:03:42;1.73;;;0.30;;
1753;SDS011;58380;48.312;9.246;2023-03-31T12:06:34;1.50;;;0.22;;
1753;SDS011;58380;48.312;9.246;2023-03-31T12:09:14;1.38;;;0.22;;
1753;SDS011;58380;48.312;9.246;2023-03-31T12:11:52;2.72;;;0.52;;
1753;SDS011;58380;48.312;9.246;2023-03-31T12:14:36;1.75;;;0.30;;
1753;SDS011;58380;48.312;9.246;2023-03-31T12:17:27;2.17;;;0.32;;
1753;SDS011;58380;48.312;9.246;2023-03-31T12:22:46;3.85;;;0.35;;
1753;SDS011;58380;48.312;9.246;2023-03-31T12:25:14;0.55;;;0.22;;
1753;SDS011;58380;48.312;9.246;2023-03-31T12:27:46;2.90;;;0.30;;
1753;SDS011;58380;48.312;9.246;2023-03-31T12:39:30;1.05;;;0.32;;
1753;SDS011;58380;48.312;9.246;2023-03-31T12:42:24;7.10;;;0.50;;
1753;SDS011;58380;48.312;9.246;2023-03-31T12:45:25;2.65;;;0.57;;
1753;SDS011;58380;48.312;9.246;2023-03-31T12:59:28;2.30;;;0.40;;
1753;SDS011;58380;48.312;9.246;2023-03-31T13:04:33;2.45;;;0.63;;
1753;SDS011;58380;48.312;9.246;2023-03-31T13:06:58;3.90;;;0.60;;
1753;SDS011;58380;48.312;9.246;2023-03-31T13:12:11;3.08;;;0.60;;
1753;SDS011;58380;48.312;9.246;2023-03-31T13:14:44;3.33;;;0.68;;
1753;SDS011;58380;48.312;9.246;2023-03-31T13:17:19;3.55;;;0.47;;
1753;SDS011;58380;48.312;9.246;2023-03-31T13:22:27;2.80;;;0.70;;
1753;SDS011;58380;48.312;9.246;2023-03-31T13:28:12;6.18;;;0.55;;
1753;SDS011;58380;48.312;9.246;2023-03-31T13:30:51;2.60;;;0.55;;
1753;SDS011;58380;48.312;9.246;2023-03-31T13:35:58;2.10;;;0.40;;
1753;SDS011;58380;48.312;9.246;2023-03-31T13:38:45;4.55;;;0.90;;
1753;SDS011;58380;48.312;9.246;2023-03-31T13:41:52;2.60;;;0.73;;
1753;SDS011;58380;48.312;9.246;2023-03-31T13:44:45;3.15;;;0.60;;
1753;SDS011;58380;48.312;9.246;2023-03-31T13:47:28;4.88;;;1.02;;
1753;SDS011;58380;48.312;9.246;2023-03-31T13:50:33;3.63;;;0.98;;
1753;SDS011;58380;48.312;9.246;2023-03-31T14:01:57;3.17;;;0.57;;
1753;SDS011;58380;48.312;9.246;2023-03-31T14:05:03;2.30;;;0.50;;
1753;SDS011;58380;48.312;9.246;2023-03-31T14:07:46;1.42;;;0.22;;
1753;SDS011;58380;48.312;9.246;2023-03-31T14:10:27;5.57;;;0.98;;
1753;SDS011;58380;48.312;9.246;2023-03-31T14:13:15;3.00;;;0.50;;
1753;SDS011;58380;48.312;9.246;2023-03-31T14:15:45;1.88;;;0.30;;
1753;SDS011;58380;48.312;9.246;2023-03-31T14:18:21;2.20;;;0.55;;
1753;SDS011;58380;48.312;9.246;2023-03-31T14:23:48;3.28;;;0.52;;
1753;SDS011;58380;48.312;9.246;2023-03-31T14:29:28;2.35;;;0.52;;
1753;SDS011;58380;48.312;9.246;2023-03-31T14:32:36;1.30;;;0.30;;
1753;SDS011;58380;48.312;9.246;2023-03-31T14:35:23;0.65;;;0.20;;
1753;SDS011;58380;48.312;9.246;2023-03-31T14:38:02;1.13;;;0.40;;
1753;SDS011;58380;48.312;9.246;2023-03-31T14:40:33;3.67;;;0.50;;
1753;SDS011;58380;48.312;9.246;2023-03-31T14:43:24;5.00;;;0.43;;
1753;SDS011;58380;48.312;9.246;2023-03-31T14:46:08;2.25;;;0.30;;
1753;SDS011;58380;48.312;9.246;2023-03-31T14:48:43;1.77;;;0.28;;
1753;SDS011;58380;48.312;9.246;2023-03-31T14:51:13;2.38;;;0.70;;
1753;SDS011;58380;48.312;9.246;2023-03-31T14:53:40;2.33;;;0.43;;
1753;SDS011;58380;48.312;9.246;2023-03-31T14:56:13;3.40;;;0.55;;
1753;SDS011;58380;48.312;9.246;2023-03-31T14:58:46;2.92;;;1.10;;
1753;SDS011;58380;48.312;9.246;2023-03-31T15:01:18;5.05;;;1.77;;
1753;SDS011;58380;48.312;9.246;2023-03-31T15:03:52;2.40;;;0.70;;
1753;SDS011;58380;48.312;9.246;2023-03-31T15:06:19;1.65;;;0.47;;
1753;SDS011;58380;48.312;9.246;2023-03-31T15:08:50;2.33;;;0.90;;
1753;SDS011;58380;48.312;9.246;2023-03-31T15:11:21;2.90;;;1.30;;
1753;SDS011;58380;48.312;9.246;2023-03-31T15:13:48;5.55;;;1.10;;
1753;SDS011;58380;48.312;9.246;2023-03-31T15:21:53;2.90;;;1.38;;
1753;SDS011;58380;48.312;9.246;2023-03-31T15:24:28;12.32;;;5.10;;
1753;SDS011;58380;48.312;9.246;2023-03-31T15:29:57;7.30;;;1.58;;
1753;SDS011;58380;48.312;9.246;2023-03-31T15:32:28;2.58;;;0.43;;
1753;SDS011;58380;48.312;9.246;2023-03-31T15:34:58;1.40;;;0.50;;
1753;SDS011;58380;48.312;9.246;2023-03-31T15:37:29;2.83;;;0.25;;
1753;SDS011;58380;48.312;9.246;2023-03-31T15:40:08;4.75;;;1.48;;
1753;SDS011;58380;48.312;9.246;2023-03-31T15:42:43;3.17;;;0.60;;
1753;SDS011;58380;48.312;9.246;2023-03-31T15:47:48;1.20;;;0.30;;
1753;SDS011;58380;48.312;9.246;2023-03-31T15:50:16;0.93;;;0.30;;
1753;SDS011;58380;48.312;9.246;2023-03-31T15:52:47;0.90;;;0.40;;
1753;SDS011;58380;48.312;9.246;2023-03-31T15:55:24;4.82;;;0.68;;
1753;SDS011;58380;48.312;9.246;2023-03-31T15:58:04;1.60;;;0.60;;
1753;SDS011;58380;48.312;9.246;2023-03-31T16:02:55;3.03;;;0.43;;
1753;SDS011;58380;48.312;9.246;2023-03-31T16:05:34;4.57;;;0.60;;
1753;SDS011;58380;48.312;9.246;2023-03-31T16:11:06;4.75;;;1.20;;
1753;SDS011;58380;48.312;9.246;2023-03-31T16:13:38;3.45;;;0.50;;
1753;SDS011;58380;48.312;9.246;2023-03-31T16:16:11;3.55;;;0.50;;
1753;SDS011;58380;48.312;9.246;2023-03-31T16:18:48;3.20;;;0.77;;
1753;SDS011;58380;48.312;9.246;2023-03-31T16:21:27;1.95;;;0.52;;
1753;SDS011;58380;48.312;9.246;2023-03-31T16:24:06;3.47;;;0.60;;
1753;SDS011;58380;48.312;9.246;2023-03-31T16:26:32;3.40;;;0.88;;
1753;SDS011;58380;48.312;9.246;2023-03-31T16:28:59;3.17;;;0.90;;
1753;SDS011;58380;48.312;9.246;2023-03-31T16:31:29;3.97;;;0.60;;
1753;SDS011;58380;48.312;9.246;2023-03-31T16:34:00;8.70;;;2.65;;
1753;SDS011;58380;48.312;9.246;2023-03-31T16:36:29;3.88;;;1.40;;
1753;SDS011;58380;48.312;9.246;2023-03-31T16:38:55;3.08;;;0.60;;
1753;SDS011;58380;48.312;9.246;2023-03-31T16:41:22;2.13;;;0.30;;
1753;SDS011;58380;48.312;9.246;2023-03-31T16:48:42;3.58;;;0.60;;
1753;SDS011;58380;48.312;9.246;2023-03-31T16:51:07;1.90;;;0.33;;
1753;SDS011;58380;48.312;9.246;2023-03-31T16:53:34;3.20;;;1.48;;
1753;SDS011;58380;48.312;9.246;2023-03-31T16:56:01;6.15;;;1.80;;
1753;SDS011;58380;48.312;9.246;2023-03-31T16:58:28;2.83;;;0.80;;
1753;SDS011;58380;48.312;9.246;2023-03-31T17:00:55;4.57;;;0.98;;
1753;SDS011;58380;48.312;9.246;2023-03-31T17:03:21;6.45;;;1.20;;
1753;SDS011;58380;48.312;9.246;2023-03-31T17:05:48;4.82;;;1.30;;
1753;SDS011;58380;48.312;9.246;2023-03-31T17:08:20;2.58;;;0.98;;
1753;SDS011;58380;48.312;9.246;2023-03-31T17:10:53;3.92;;;0.75;;
1753;SDS011;58380;48.312;9.246;2023-03-31T17:13:23;6.30;;;1.65;;
1753;SDS011;58380;48.312;9.246;2023-03-31T17:15:49;7.10;;;1.20;;
1753;SDS011;58380;48.312;9.246;2023-03-31T17:18:14;6.20;;;0.80;;
1753;SDS011;58380;48.312;9.246;2023-03-31T17:23:06;5.15;;;1.38;;
1753;SDS011;58380;48.312;9.246;2023-03-31T17:25:32;6.40;;;1.90;;
1753;SDS011;58380;48.312;9.246;2023-03-31T17:28:00;4.65;;;0.85;;
1753;SDS011;58380;48.312;9.246;2023-03-31T17:30:28;2.83;;;0.95;;
1753;SDS011;58380;48.312;9.246;2023-03-31T17:32:54;4.88;;;1.52;;
1753;SDS011;58380;48.312;9.246;2023-03-31T17:37:47;3.65;;;1.20;;
1753;SDS011;58380;48.312;9.246;2023-03-31T17:40:21;4.00;;;1.13;;
1753;SDS011;58380;48.312;9.246;2023-03-31T17:42:48;2.72;;;0.98;;
1753;SDS011;58380;48.312;9.246;2023-03-31T17:45:14;4.82;;;1.25;;
1753;SDS011;58380;48.312;9.246;2023-03-31T17:47:40;4.90;;;1.20;;
1753;SDS011;58380;48.312;9.246;2023-03-31T17:50:06;6.28;;;2.00;;
1753;SDS011;58380;48.312;9.246;2023-03-31T17:52:33;4.15;;;1.27;;
1753;SDS011;58380;48.312;9.246;2023-03-31T17:55:00;5.20;;;0.98;;
1753;SDS011;58380;48.312;9.246;2023-03-31T17:57:28;2.88;;;0.80;;
1753;SDS011;58380;48.312;9.246;2023-03-31T17:59:54;4.80;;;1.25;;
1753;SDS011;58380;48.312;9.246;2023-03-31T18:04:46;3.35;;;0.68;;
1753;SDS011;58380;48.312;9.246;2023-03-31T18:07:11;6.10;;;0.80;;
1753;SDS011;58380;48.312;9.246;2023-03-31T18:09:36;4.33;;;0.80;;
1753;SDS011;58380;48.312;9.246;2023-03-31T18:14:29;3.00;;;0.85;;
1753;SDS011;58380;48.312;9.246;2023-03-31T18:16:54;10.07;;;3.90;;
1753;SDS011;58380;48.312;9.246;2023-03-31T18:19:20;10.48;;;2.97;;
1753;SDS011;58380;48.312;9.246;2023-03-31T18:21:46;5.47;;;1.45;;
1753;SDS011;58380;48.312;9.246;2023-03-31T18:24:12;6.85;;;1.83;;
1753;SDS011;58380;48.312;9.246;2023-03-31T18:26:37;9.38;;;2.22;;
1753;SDS011;58380;48.312;9.246;2023-03-31T18:29:03;5.63;;;1.70;;
1753;SDS011;58380;48.312;9.246;2023-03-31T18:31:29;3.22;;;1.10;;
1753;SDS011;58380;48.312;9.246;2023-03-31T18:33:54;1.97;;;0.43;;
1753;SDS011;58380;48.312;9.246;2023-03-31T18:36:20;1.30;;;0.50;;
1753;SDS011;58380;48.312;9.246;2023-03-31T18:38:48;3.58;;;0.95;;
1753;SDS011;58380;48.312;9.246;2023-03-31T18:41:14;2.35;;;1.33;;
1753;SDS011;58380;48.312;9.246;2023-03-31T18:43:41;5.40;;;1.27;;
1753;SDS011;58380;48.312;9.246;2023-03-31T18:46:07;2.85;;;0.68;;
1753;SDS011;58380;48.312;9.246;2023-03-31T18:48:34;6.63;;;1.75;;
1753;SDS011;58380;48.312;9.246;2023-03-31T18:51:00;7.50;;;1.08;;
1753;SDS011;58380;48.312;9.246;2023-03-31T18:53:26;8.75;;;2.00;;
1753;SDS011;58380;48.312;9.246;2023-03-31T18:55:56;5.90;;;1.67;;
1753;SDS011;58380;48.312;9.246;2023-03-31T18:58:23;8.38;;;2.10;;
1753;SDS011;58380;48.312;9.246;2023-03-31T19:00:52;16.00;;;5.40;;
1753;SDS011;58380;48.312;9.246;2023-03-31T19:03:18;6.15;;;1.10;;
1753;SDS011;58380;48.312;9.246;2023-03-31T19:05:44;5.88;;;0.90;;
1753;SDS011;58380;48.312;9.246;2023-03-31T19:08:10;10.63;;;4.35;;
1753;SDS011;58380;48.312;9.246;2023-03-31T19:10:35;6.60;;;1.50;;
1753;SDS011;58380;48.312;9.246;2023-03-31T19:13:02;21.48;;;5.75;;
1753;SDS011;58380;48.312;9.246;2023-03-31T19:15:27;14.80;;;4.18;;
1753;SDS011;58380;48.312;9.246;2023-03-31T19:17:53;6.60;;;2.10;;
1753;SDS011;58380;48.312;9.246;2023-03-31T19:20:19;8.95;;;2.50;;
1753;SDS011;58380;48.312;9.246;2023-03-31T19:22:46;23.05;;;5.47;;
1753;SDS011;58380;48.312;9.246;2023-03-31T19:25:15;6.25;;;2.13;;
1753;SDS011;58380;48.312;9.246;2023-03-31T19:27:43;9.25;;;2.90;;
1753;SDS011;58380;48.312;9.246;2023-03-31T19:30:20;7.72;;;2.42;;
1753;SDS011;58380;48.312;9.246;2023-03-31T19:32:48;19.73;;;6.93;;
1753;SDS011;58380;48.312;9.246;2023-03-31T19:35:15;6.13;;;1.85;;
1753;SDS011;58380;48.312;9.246;2023-03-31T19:37:42;11.73;;;3.42;;
1753;SDS011;58380;48.312;9.246;2023-03-31T19:40:07;7.40;;;2.40;;
1753;SDS011;58380;48.312;9.246;2023-03-31T19:42:34;8.50;;;2.70;;
1753;SDS011;58380;48.312;9.246;2023-03-31T19:45:00;6.55;;;2.22;;
1753;SDS011;58380;48.312;9.246;2023-03-31T19:47:26;8.25;;;2.60;;
1753;SDS011;58380;48.312;9.246;2023-03-31T19:49:51;10.73;;;4.60;;
1753;SDS011;58380;48.312;9.246;2023-03-31T19:52:17;9.63;;;3.70;;
1753;SDS011;58380;48.312;9.246;2023-03-31T19:54:42;5.77;;;1.50;;
1753;SDS011;58380;48.312;9.246;2023-03-31T19:57:08;7.40;;;2.88;;
1753;SDS011;58380;48.312;9.246;2023-03-31T19:59:35;8.13;;;3.00;;
1753;SDS011;58380;48.312;9.246;2023-03-31T20:02:01;4.25;;;1.77;;
1753;SDS011;58380;48.312;9.246;2023-03-31T20:04:29;5.78;;;1.48;;
1753;SDS011;58380;48.312;9.246;2023-03-31T20:06:56;3.60;;;1.40;;
1753;SDS011;58380;48.312;9.246;2023-03-31T20:09:22;5.47;;;1.40;;
1753;SDS011;58380;48.312;9.246;2023-03-31T20:11:49;11.32;;;4.15;;
1753;SDS011;58380;48.312;9.246;2023-03-31T20:14:15;11.93;;;4.55;;
1753;SDS011;58380;48.312;9.246;2023-03-31T20:16:42;5.97;;;1.17;;
1753;SDS011;58380;48.312;9.246;2023-03-31T20:19:09;5.28;;;1.38;;
1753;SDS011;58380;48.312;9.246;2023-03-31T20:21:36;6.60;;;1.80;;
1753;SDS011;58380;48.312;9.246;2023-03-31T20:24:03;5.85;;;1.58;;
1753;SDS011;58380;48.312;9.246;2023-03-31T20:26:31;5.72;;;1.95;;
1753;SDS011;58380;48.312;9.246;2023-03-31T20:28:59;6.40;;;2.10;;
